Time,TemperatureF,DewpointF,PressureIn,WindDirection,WindDirectionDegrees,WindSpeedMPH,WindSpeedGustMPH,Humidity,HourlyPrecipIn,Conditions,Clouds,dailyrainin,SoftwareType,DateUTC
2013-02-14 00:01:00,32.0,25.0,-100.00,NNE,30,9.0,15.0,76,0.00,,,0.00,,2013-02-14 07:01:00,
2013-02-14 00:11:00,32.0,25.0,-100.00,NNE,30,9.0,15.0,76,0.00,,,0.00,,2013-02-14 07:11:00,
2013-02-14 00:41:00,31.0,26.0,-100.00,North,11,9.0,18.0,81,0.00,,,0.00,,2013-02-14 07:41:00,
2013-02-14 00:52:00,31.0,26.0,-100.00,North,11,9.0,18.0,81,0.00,,,0.00,,2013-02-14 07:52:00,
2013-02-14 01:01:00,31.0,26.0,-100.00,North,11,9.0,18.0,81,0.00,,,0.00,,2013-02-14 08:01:00,
2013-02-14 01:11:00,31.0,26.0,-100.00,North,11,9.0,18.0,81,0.00,,,0.00,,2013-02-14 08:11:00,
2013-02-14 01:43:00,31.0,24.0,-100.00,East,94,4.0,11.0,75,0.01,,,0.01,,2013-02-14 08:43:00,
2013-02-14 01:52:00,31.0,24.0,-100.00,East,94,4.0,11.0,75,0.01,,,0.01,,2013-02-14 08:52:00,
2013-02-14 02:01:00,31.0,24.0,-100.00,East,94,4.0,11.0,75,0.01,,,0.01,,2013-02-14 09:01:00,
2013-02-14 02:11:00,31.0,24.0,-100.00,East,94,4.0,11.0,75,0.01,,,0.01,,2013-02-14 09:11:00,
2013-02-14 02:41:00,32.0,22.0,-100.00,WNW,295,5.0,10.0,67,0.00,,,0.01,,2013-02-14 09:41:00,
2013-02-14 02:52:00,32.0,22.0,-100.00,WNW,295,5.0,10.0,67,0.00,,,0.01,,2013-02-14 09:52:00,
2013-02-14 03:02:00,32.0,22.0,-100.00,WNW,295,5.0,10.0,67,0.00,,,0.01,,2013-02-14 10:02:00,
2013-02-14 03:11:00,32.0,22.0,-100.00,WNW,295,5.0,10.0,67,0.00,,,0.01,,2013-02-14 10:11:00,
2013-02-14 03:42:00,32.0,16.0,-100.00,NNW,340,13.0,21.0,51,0.00,,,0.01,,2013-02-14 10:42:00,
2013-02-14 03:52:00,32.0,16.0,-100.00,NNW,340,13.0,21.0,51,0.00,,,0.01,,2013-02-14 10:52:00,
2013-02-14 04:01:00,32.0,16.0,-100.00,NNW,340,13.0,21.0,51,0.00,,,0.01,,2013-02-14 11:01:00,
2013-02-14 04:11:00,32.0,16.0,-100.00,NNW,340,13.0,21.0,51,0.00,,,0.01,,2013-02-14 11:11:00,
2013-02-14 04:42:00,31.0,18.0,-100.00,WNW,298,5.0,11.0,58,-99.99,,,0.00,,2013-02-14 11:42:00,
2013-02-14 04:52:00,31.0,18.0,-100.00,WNW,298,5.0,11.0,58,-99.99,,,0.00,,2013-02-14 11:52:00,
2013-02-14 05:01:00,31.0,18.0,-100.00,WNW,298,5.0,11.0,58,-99.99,,,0.00,,2013-02-14 12:01:00,
2013-02-14 05:11:00,31.0,18.0,-100.00,WNW,298,5.0,11.0,58,-99.99,,,0.00,,2013-02-14 12:11:00,
2013-02-14 05:42:00,31.0,17.0,-100.00,NNE,20,1.0,4.0,56,0.00,,,0.00,,2013-02-14 12:42:00,
2013-02-14 05:53:00,31.0,17.0,-100.00,NNE,20,1.0,4.0,56,0.00,,,0.00,,2013-02-14 12:53:00,
2013-02-14 06:01:00,31.0,17.0,-100.00,NNE,20,1.0,4.0,56,0.00,,,0.00,,2013-02-14 13:01:00,
2013-02-14 06:11:00,31.0,17.0,-100.00,NNE,20,1.0,4.0,56,0.00,,,0.00,,2013-02-14 13:11:00,
2013-02-14 06:41:00,32.0,15.0,-100.00,North,359,5.0,15.0,49,0.00,,,0.00,,2013-02-14 13:41:00,
2013-02-14 06:51:00,32.0,15.0,-100.00,North,359,5.0,15.0,49,0.00,,,0.00,,2013-02-14 13:51:00,
2013-02-14 07:01:00,32.0,15.0,-100.00,North,359,5.0,15.0,49,0.00,,,0.00,,2013-02-14 14:01:00,
2013-02-14 07:11:00,32.0,15.0,-100.00,North,359,5.0,15.0,49,0.00,,,0.00,,2013-02-14 14:11:00,
2013-02-14 07:41:00,30.0,17.0,-100.00,NNW,347,4.0,10.0,57,0.00,,,0.00,,2013-02-14 14:41:00,
2013-02-14 07:52:00,30.0,17.0,-100.00,NNW,347,4.0,10.0,57,0.00,,,0.00,,2013-02-14 14:52:00,
2013-02-14 08:01:00,30.0,17.0,-100.00,NNW,347,4.0,10.0,57,0.00,,,0.00,,2013-02-14 15:01:00,
2013-02-14 08:11:00,30.0,17.0,-100.00,NNW,347,4.0,10.0,57,0.00,,,0.00,,2013-02-14 15:11:00,
2013-02-14 08:41:00,30.0,17.0,-100.00,SW,236,5.0,13.0,58,0.00,,,0.00,,2013-02-14 15:41:00,
2013-02-14 08:52:00,30.0,17.0,-100.00,SW,236,5.0,13.0,58,0.00,,,0.00,,2013-02-14 15:52:00,
2013-02-14 09:01:00,30.0,17.0,-100.00,SW,236,5.0,13.0,58,0.00,,,0.00,,2013-02-14 16:01:00,
2013-02-14 09:11:00,30.0,17.0,-100.00,SW,236,5.0,13.0,58,0.00,,,0.00,,2013-02-14 16:11:00,
2013-02-14 09:41:00,31.0,19.0,-100.00,South,179,3.0,5.0,61,0.00,,,0.00,,2013-02-14 16:41:00,
2013-02-14 09:52:00,31.0,19.0,-100.00,South,179,3.0,5.0,61,0.00,,,0.00,,2013-02-14 16:52:00,
2013-02-14 10:01:00,31.0,19.0,-100.00,South,179,3.0,5.0,61,0.00,,,0.00,,2013-02-14 17:01:00,
2013-02-14 10:11:00,31.0,19.0,-100.00,South,179,3.0,5.0,61,0.00,,,0.00,,2013-02-14 17:11:00,
2013-02-14 10:41:00,33.0,17.0,-100.00,SSE,166,6.0,9.0,51,0.00,,,0.00,,2013-02-14 17:41:00,
2013-02-14 10:52:00,33.0,17.0,-100.00,SSE,166,6.0,9.0,51,0.00,,,0.00,,2013-02-14 17:52:00,
2013-02-14 11:01:00,33.0,17.0,-100.00,SSE,166,6.0,9.0,51,0.00,,,0.00,,2013-02-14 18:01:00,
2013-02-14 11:11:00,33.0,17.0,-100.00,SSE,166,6.0,9.0,51,0.00,,,0.00,,2013-02-14 18:11:00,
2013-02-14 11:41:00,35.0,14.0,-100.00,SSE,151,7.0,13.0,41,0.00,,,0.00,,2013-02-14 18:41:00,
2013-02-14 11:52:00,35.0,14.0,-100.00,SSE,151,7.0,13.0,41,0.00,,,0.00,,2013-02-14 18:52:00,
2013-02-14 12:01:00,35.0,14.0,-100.00,SSE,151,7.0,13.0,41,0.00,,,0.00,,2013-02-14 19:01:00,
2013-02-14 12:11:00,35.0,14.0,-100.00,SSE,151,7.0,13.0,41,0.00,,,0.00,,2013-02-14 19:11:00,
2013-02-14 12:41:00,37.0,14.0,-100.00,SSW,200,5.0,11.0,39,0.00,,,0.00,,2013-02-14 19:41:00,
2013-02-14 12:52:00,37.0,14.0,-100.00,SSW,200,5.0,11.0,39,0.00,,,0.00,,2013-02-14 19:52:00,
2013-02-14 13:01:00,37.0,14.0,-100.00,SSW,200,5.0,11.0,39,0.00,,,0.00,,2013-02-14 20:01:00,
2013-02-14 13:11:00,37.0,14.0,-100.00,SSW,200,5.0,11.0,39,0.00,,,0.00,,2013-02-14 20:11:00,
2013-02-14 13:41:00,37.0,14.0,-100.00,NW,323,10.0,17.0,37,0.00,,,0.00,,2013-02-14 20:41:00,
2013-02-14 13:52:00,37.0,14.0,-100.00,NW,323,10.0,17.0,37,0.00,,,0.00,,2013-02-14 20:52:00,
2013-02-14 14:02:00,37.0,14.0,-100.00,NW,323,10.0,17.0,37,0.00,,,0.00,,2013-02-14 21:02:00,
2013-02-14 14:11:00,37.0,14.0,-100.00,NW,323,10.0,17.0,37,0.00,,,0.00,,2013-02-14 21:11:00,
2013-02-14 15:41:00,38.0,15.0,-100.00,NNE,12,5.0,11.0,38,0.00,,,0.00,,2013-02-14 22:41:00,
2013-02-14 15:52:00,38.0,15.0,-100.00,NNE,12,5.0,11.0,38,0.00,,,0.00,,2013-02-14 22:52:00,
2013-02-14 16:01:00,38.0,15.0,-100.00,NNE,12,5.0,11.0,38,0.00,,,0.00,,2013-02-14 23:01:00,
2013-02-14 16:11:00,38.0,15.0,-100.00,NNE,12,5.0,11.0,38,0.00,,,0.00,,2013-02-14 23:11:00,
2013-02-14 16:41:00,36.0,20.0,-100.00,NE,35,9.0,17.0,53,0.00,,,0.00,,2013-02-14 23:41:00,
2013-02-14 16:52:00,36.0,20.0,-100.00,NE,35,9.0,17.0,53,0.00,,,0.00,,2013-02-14 23:52:00,
2013-02-14 17:01:00,36.0,20.0,-100.00,NE,35,9.0,17.0,53,0.00,,,0.00,,2013-02-15 00:01:00,
2013-02-14 17:11:00,36.0,20.0,-100.00,NE,35,9.0,17.0,53,0.00,,,0.00,,2013-02-15 00:11:00,
2013-02-14 17:41:00,33.0,21.0,-100.00,NNE,22,10.0,16.0,60,0.00,,,0.00,,2013-02-15 00:41:00,
2013-02-14 17:52:00,33.0,21.0,-100.00,NNE,22,10.0,16.0,60,0.00,,,0.00,,2013-02-15 00:52:00,
2013-02-14 18:01:00,33.0,21.0,-100.00,NNE,22,10.0,16.0,60,0.00,,,0.00,,2013-02-15 01:01:00,
2013-02-14 18:11:00,33.0,21.0,-100.00,NNE,22,10.0,16.0,60,0.00,,,0.00,,2013-02-15 01:11:00,
2013-02-14 18:41:00,33.0,19.0,-100.00,NE,45,7.0,13.0,57,0.00,,,0.00,,2013-02-15 01:41:00,
2013-02-14 18:52:00,33.0,19.0,-100.00,NE,45,7.0,13.0,57,0.00,,,0.00,,2013-02-15 01:52:00,
2013-02-14 19:01:00,33.0,19.0,-100.00,NE,45,7.0,13.0,57,0.00,,,0.00,,2013-02-15 02:01:00,
2013-02-14 19:11:00,33.0,19.0,-100.00,NE,45,7.0,13.0,57,0.00,,,0.00,,2013-02-15 02:11:00,
2013-02-14 19:41:00,33.0,20.0,-100.00,ENE,69,6.0,12.0,57,0.00,,,0.00,,2013-02-15 02:41:00,
2013-02-14 19:52:00,33.0,20.0,-100.00,ENE,69,6.0,12.0,57,0.00,,,0.00,,2013-02-15 02:52:00,
2013-02-14 20:02:00,33.0,20.0,-100.00,ENE,69,6.0,12.0,57,0.00,,,0.00,,2013-02-15 03:02:00,
2013-02-14 20:11:00,33.0,20.0,-100.00,ENE,69,6.0,12.0,57,0.00,,,0.00,,2013-02-15 03:11:00,
2013-02-14 20:41:00,32.0,21.0,-100.00,ENE,74,6.0,10.0,63,0.00,,,0.00,,2013-02-15 03:41:00,
2013-02-14 20:52:00,32.0,21.0,-100.00,ENE,74,6.0,10.0,63,0.00,,,0.00,,2013-02-15 03:52:00,
2013-02-14 21:01:00,32.0,21.0,-100.00,ENE,74,6.0,10.0,63,0.00,,,0.00,,2013-02-15 04:01:00,
2013-02-14 21:11:00,32.0,21.0,-100.00,ENE,74,6.0,10.0,63,0.00,,,0.00,,2013-02-15 04:11:00,
2013-02-14 21:42:00,32.0,22.0,-100.00,ENE,66,12.0,18.0,66,0.00,,,0.00,,2013-02-15 04:42:00,
2013-02-14 21:52:00,32.0,22.0,-100.00,ENE,66,12.0,18.0,66,0.00,,,0.00,,2013-02-15 04:52:00,
2013-02-14 22:01:00,32.0,22.0,-100.00,ENE,66,12.0,18.0,66,0.00,,,0.00,,2013-02-15 05:01:00,
2013-02-14 22:11:00,32.0,22.0,-100.00,ENE,66,12.0,18.0,66,0.00,,,0.00,,2013-02-15 05:11:00,
2013-02-14 22:41:00,32.0,22.0,-100.00,North,0,4.0,11.0,66,0.00,,,0.00,,2013-02-15 05:41:00,
2013-02-14 22:52:00,32.0,22.0,-100.00,North,0,4.0,11.0,66,0.00,,,0.00,,2013-02-15 05:52:00,
2013-02-14 23:02:00,32.0,22.0,-100.00,North,0,4.0,11.0,66,0.00,,,0.00,,2013-02-15 06:02:00,
2013-02-14 23:11:00,32.0,22.0,-100.00,North,0,4.0,11.0,66,0.00,,,0.00,,2013-02-15 06:11:00,
2013-02-14 23:42:00,31.0,23.0,-100.00,ESE,105,1.0,4.0,70,0.00,,,0.00,,2013-02-15 06:42:00,
2013-02-14 23:52:00,31.0,23.0,-100.00,ESE,105,1.0,4.0,70,0.00,,,0.00,,2013-02-15 06:52:00,